createdAt,value
2022-12-08T04:08:31.461Z,79.67
2022-12-08T04:10:58.476Z,74.96
2022-12-08T04:13:25.476Z,73.50
2022-12-08T04:15:52.359Z,73.55
2022-12-08T04:18:19.246Z,73.75
2022-12-08T04:20:46.071Z,73.51
2022-12-08T04:23:13.390Z,72.23
2022-12-08T04:25:40.533Z,71.80
2022-12-08T04:28:07.464Z,71.84
2022-12-08T04:30:35.112Z,72.08
2022-12-08T04:33:02.035Z,72.77
2022-12-08T04:35:28.928Z,72.59
2022-12-08T04:37:56.531Z,71.34
2022-12-08T04:40:23.936Z,70.92
2022-12-08T04:42:50.739Z,71.02
2022-12-08T04:45:18.161Z,71.40
2022-12-08T04:47:45.293Z,72.21
2022-12-08T04:50:13.132Z,72.12
2022-12-08T04:52:40.232Z,70.63
2022-12-08T04:55:07.415Z,69.59
2022-12-08T04:57:34.405Z,69.43
2022-12-08T05:00:01.347Z,69.86
2022-12-08T05:03:09.514Z,70.30
2022-12-08T05:05:36.451Z,70.08
2022-12-08T05:08:03.407Z,68.86
2022-12-08T05:10:31.239Z,68.66
2022-12-08T05:12:59.165Z,68.92
2022-12-08T05:15:25.991Z,69.27
2022-12-08T05:17:54.128Z,69.77
2022-12-08T05:20:21.419Z,69.87
2022-12-08T05:22:48.328Z,68.94
2022-12-08T05:25:15.149Z,68.51
2022-12-08T05:27:43.129Z,68.65
2022-12-08T05:30:10.474Z,68.82
2022-12-08T05:32:37.361Z,69.22
2022-12-08T05:35:04.361Z,70.21
2022-12-08T05:37:31.447Z,70.04
2022-12-08T05:39:58.308Z,69.29
2022-12-08T05:42:25.616Z,68.69
2022-12-08T05:44:53.074Z,68.55
2022-12-08T05:47:19.892Z,68.70
2022-12-08T05:49:46.736Z,69.04
2022-12-08T05:52:17.038Z,69.86
2022-12-08T05:54:44.314Z,69.93
2022-12-08T05:57:11.164Z,68.77
2022-12-08T05:59:39.065Z,68.54
2022-12-08T06:02:06.269Z,68.31
2022-12-08T06:04:33.476Z,68.54
2022-12-08T06:07:00.844Z,69.14
2022-12-08T06:09:27.828Z,69.47
2022-12-08T06:11:54.731Z,69.70
2022-12-08T06:14:21.607Z,68.75
2022-12-08T06:16:48.542Z,68.12
2022-12-08T06:19:15.807Z,68.11
2022-12-08T06:21:42.671Z,68.20
2022-12-08T06:24:09.635Z,68.61
2022-12-08T06:26:37.021Z,69.33
2022-12-08T06:29:05.085Z,69.31
2022-12-08T06:31:32.265Z,68.31
2022-12-08T06:33:59.303Z,67.85
2022-12-08T06:36:26.972Z,67.91
2022-12-08T06:38:53.860Z,67.79
2022-12-08T06:41:20.798Z,68.40
2022-12-08T06:43:47.871Z,68.80
2022-12-08T06:46:16.262Z,68.74
2022-12-08T06:48:43.328Z,68.00
2022-12-08T06:51:15.578Z,67.28
2022-12-08T06:53:42.826Z,67.32
2022-12-08T06:56:10.048Z,67.65
2022-12-08T06:58:37.161Z,68.04
2022-12-08T07:01:08.779Z,68.75
2022-12-08T07:03:36.967Z,68.73
2022-12-08T07:06:04.699Z,67.58
2022-12-08T07:08:33.935Z,67.09
2022-12-08T07:11:06.867Z,67.19
2022-12-08T07:13:33.710Z,67.38
2022-12-08T07:16:00.561Z,68.04
2022-12-08T07:18:27.506Z,68.70
2022-12-08T07:20:54.361Z,68.60
2022-12-08T07:23:21.206Z,67.57
2022-12-08T07:25:48.140Z,66.90
2022-12-08T10:48:37.188Z,71.45
2022-12-08T10:51:05.749Z,67.04
2022-12-08T10:53:33.249Z,64.38
2022-12-08T10:56:02.962Z,62.66
2022-12-08T10:58:36.608Z,61.44
2022-12-08T11:01:06.816Z,60.86
2022-12-08T11:03:36.392Z,59.67
2022-12-08T11:06:11.906Z,60.78
2022-12-08T11:08:57.235Z,61.23
2022-12-08T11:11:53.209Z,62.18
2022-12-08T11:14:30.256Z,61.56
2022-12-08T11:17:06.402Z,59.36
2022-12-08T11:19:34.575Z,59.93
2022-12-08T11:22:01.613Z,59.20
2022-12-08T11:24:31.200Z,59.37
2022-12-08T11:27:03.308Z,58.69
2022-12-08T11:29:31.877Z,59.05
2022-12-08T11:32:08.233Z,60.40
2022-12-08T11:34:42.864Z,59.05
2022-12-08T11:37:20.013Z,59.93
2022-12-08T11:39:48.994Z,58.01
2022-12-08T11:42:16.475Z,56.96
2022-12-08T11:44:58.233Z,57.53
2022-12-08T11:47:31.394Z,56.91
2022-12-08T11:50:35.054Z,55.00
2022-12-08T11:53:02.015Z,49.83
2022-12-08T11:55:39.437Z,51.47
2022-12-08T11:58:21.427Z,50.91
2022-12-08T12:00:48.369Z,48.07
2022-12-08T12:03:29.890Z,48.27
2022-12-08T12:06:23.871Z,46.68
2022-12-08T12:09:06.354Z,44.14
2022-12-08T12:12:12.594Z,41.15
2022-12-08T12:15:11.573Z,44.78
2022-12-08T12:17:54.732Z,40.42
2022-12-08T12:20:26.144Z,42.66
2022-12-08T12:23:06.150Z,43.13
2022-12-08T12:25:34.091Z,42.07
2022-12-08T12:28:03.558Z,42.02
2022-12-08T12:30:52.840Z,41.31
2022-12-08T12:33:20.022Z,38.04
2022-12-08T12:35:49.833Z,40.56
2022-12-08T12:38:53.462Z,40.10
2022-12-08T12:41:26.405Z,40.59
2022-12-08T12:44:14.777Z,41.10
2022-12-08T12:46:50.667Z,40.61
2022-12-08T12:49:39.213Z,40.13
2022-12-08T12:52:18.756Z,38.70
2022-12-08T12:55:11.621Z,40.71
2022-12-08T12:57:40.525Z,38.71
2022-12-08T13:00:09.968Z,39.81
2022-12-08T13:02:46.067Z,39.35
2022-12-08T13:05:23.870Z,40.74
2022-12-08T13:08:23.205Z,41.82
2022-12-08T13:11:04.220Z,43.35
2022-12-08T13:13:31.132Z,45.44
2022-12-08T13:16:18.849Z,44.52
2022-12-08T13:18:50.118Z,44.69
2022-12-08T13:21:18.920Z,46.50
2022-12-08T13:23:47.743Z,45.70
2022-12-08T13:26:14.567Z,45.41
2022-12-08T13:28:59.888Z,45.87
2022-12-08T13:31:51.794Z,46.66
2022-12-08T13:34:42.348Z,47.15
2022-12-08T13:37:12.332Z,47.68
2022-12-08T13:39:39.252Z,48.17
2022-12-08T13:42:12.474Z,48.18
2022-12-08T13:47:39.131Z,49.11
2022-12-08T13:59:19.662Z,52.51
2022-12-08T14:01:48.392Z,53.34
2022-12-08T14:04:42.665Z,54.10
2022-12-08T14:07:08.637Z,54.87
2022-12-08T14:09:36.625Z,55.24
2022-12-08T14:12:36.023Z,55.79
2022-12-08T14:15:05.928Z,57.13
2022-12-08T14:17:33.731Z,57.55
2022-12-08T14:20:01.505Z,57.79
2022-12-08T14:22:36.272Z,58.66
2022-12-08T14:25:04.349Z,58.95
2022-12-08T14:27:33.676Z,57.96
2022-12-08T14:30:01.922Z,57.41
2022-12-08T14:32:31.838Z,57.41
2022-12-08T14:35:28.902Z,57.74
2022-12-08T14:37:58.562Z,58.23
2022-12-08T14:40:29.916Z,58.95
2022-12-08T14:43:09.335Z,59.45
2022-12-08T14:45:39.060Z,60.53
2022-12-08T14:48:44.865Z,61.07
2022-12-08T14:51:20.917Z,62.29
2022-12-08T14:53:58.786Z,62.07
2022-12-08T14:56:36.406Z,60.75
2022-12-08T14:59:09.499Z,60.02
2022-12-08T15:01:36.471Z,60.38
2022-12-08T15:04:24.732Z,60.67
2022-12-08T15:07:01.126Z,61.28
2022-12-08T15:09:34.586Z,61.90
2022-12-08T15:12:06.055Z,62.36
2022-12-08T15:14:34.821Z,62.63
2022-12-08T15:17:02.357Z,63.15
2022-12-08T15:19:33.027Z,62.90
2022-12-08T15:22:13.953Z,61.93
2022-12-08T15:24:40.781Z,60.89
2022-12-08T15:27:07.603Z,61.83
2022-12-08T15:29:34.561Z,61.53
2022-12-08T15:32:01.658Z,61.66
2022-12-08T15:34:28.851Z,62.34
2022-12-08T15:36:55.663Z,62.93
2022-12-08T15:39:33.910Z,63.27
2022-12-08T15:42:01.742Z,63.98
2022-12-08T15:44:29.354Z,62.90
2022-12-08T15:46:56.340Z,62.10
2022-12-08T15:49:23.866Z,62.41
2022-12-08T15:51:55.696Z,62.80
2022-12-08T15:54:27.633Z,63.22
2022-12-08T15:57:18.500Z,63.81
2022-12-08T15:59:43.249Z,64.42
2022-12-08T16:02:14.546Z,64.09
2022-12-08T16:07:31.400Z,62.71
2022-12-08T16:09:58.464Z,63.07
2022-12-08T16:15:51.606Z,63.86
2022-12-08T16:18:24.144Z,63.97
2022-12-08T16:23:45.646Z,65.35
2022-12-08T16:26:35.470Z,64.85
2022-12-08T16:29:04.624Z,64.47
2022-12-08T16:31:33.427Z,64.91
2022-12-08T16:34:00.399Z,65.44
2022-12-08T16:36:27.243Z,65.73
2022-12-08T16:38:54.147Z,66.27
2022-12-08T16:41:39.868Z,66.43
2022-12-08T16:44:06.753Z,67.02
2022-12-08T16:46:33.765Z,66.12
2022-12-08T16:49:00.654Z,65.74
2022-12-08T16:51:27.851Z,65.24
2022-12-08T16:53:55.568Z,65.87
2022-12-08T16:56:26.228Z,66.00
2022-12-08T16:58:57.471Z,66.08
2022-12-08T17:01:24.380Z,66.54
2022-12-08T17:04:22.557Z,67.30
2022-12-08T17:06:38.512Z,67.36
2022-12-08T17:09:05.765Z,66.74
2022-12-08T17:11:36.275Z,66.51
2022-12-08T17:14:09.222Z,66.47
2022-12-08T17:16:36.505Z,66.90
2022-12-08T17:19:05.788Z,67.01
2022-12-08T17:21:32.743Z,67.45
2022-12-08T17:23:59.580Z,67.67
2022-12-08T17:26:26.430Z,66.92
2022-12-08T17:29:01.550Z,66.17
2022-12-08T17:31:31.049Z,65.62
2022-12-08T17:34:00.466Z,66.16
2022-12-08T17:36:27.371Z,66.70
2022-12-08T17:38:54.554Z,67.07
2022-12-08T17:41:21.652Z,67.25
2022-12-08T17:43:48.443Z,67.66
2022-12-08T17:46:18.981Z,66.81
2022-12-08T17:48:45.896Z,66.24
2022-12-08T17:51:12.751Z,66.09
2022-12-08T17:53:42.690Z,66.65
2022-12-08T17:56:18.019Z,66.82
2022-12-08T17:58:46.623Z,66.97
2022-12-08T18:01:17.390Z,67.20
2022-12-08T18:03:44.259Z,67.41
2022-12-08T18:06:12.391Z,66.08
2022-12-08T18:08:39.816Z,65.89
2022-12-08T18:11:11.821Z,65.65
2022-12-08T18:13:38.708Z,66.28
2022-12-08T18:16:05.780Z,66.77
2022-12-08T18:18:32.602Z,67.17
2022-12-08T18:20:59.436Z,67.53
2022-12-08T19:09:08.134Z,78.19
2022-12-08T19:11:35.415Z,75.75
2022-12-08T19:14:02.306Z,73.50
2022-12-08T19:16:29.335Z,71.71
2022-12-08T19:18:56.340Z,70.62
2022-12-08T19:21:24.778Z,70.27
2022-12-08T19:23:52.743Z,69.59
2022-12-08T19:26:19.969Z,69.45
2022-12-08T19:28:46.808Z,69.38
2022-12-08T19:31:13.953Z,68.79
2022-12-08T19:33:41.081Z,67.54
2022-12-08T19:36:09.594Z,67.13
2022-12-08T19:38:56.513Z,66.82
2022-12-08T19:41:42.391Z,67.55
2022-12-08T19:44:34.604Z,67.92
2022-12-08T19:47:01.842Z,68.16
2022-12-08T19:49:29.040Z,68.41
2022-12-08T19:51:55.939Z,68.28
2022-12-08T19:54:23.414Z,67.13
2022-12-08T19:56:50.880Z,66.55
2022-12-08T19:59:18.236Z,66.33
2022-12-08T20:01:45.498Z,66.33
2022-12-08T20:04:14.154Z,66.89
2022-12-08T20:06:41.060Z,67.38
2022-12-08T20:09:08.220Z,68.01
2022-12-08T20:11:35.058Z,68.25
2022-12-08T20:14:01.934Z,67.02
2022-12-08T20:16:28.928Z,66.29
2022-12-08T20:18:55.872Z,66.15
2022-12-08T20:21:22.764Z,66.15
2022-12-08T20:23:49.952Z,66.66
2022-12-08T20:26:19.233Z,67.43
2022-12-08T20:28:46.147Z,67.44
2022-12-08T20:31:24.724Z,66.93
2022-12-08T20:33:51.966Z,66.14
2022-12-08T20:36:19.993Z,66.07
2022-12-08T20:38:47.869Z,65.67
2022-12-08T20:41:18.056Z,66.13
2022-12-08T20:43:45.584Z,66.85
2022-12-08T20:46:14.393Z,67.07
2022-12-08T20:48:42.057Z,67.78
2022-12-08T20:51:13.158Z,68.43
2022-12-08T20:53:40.289Z,67.00
2022-12-08T20:56:07.507Z,66.31
2022-12-08T20:58:34.788Z,66.07
2022-12-08T21:01:01.864Z,66.25
2022-12-08T21:03:29.060Z,66.40
2022-12-08T21:05:56.498Z,66.73
2022-12-08T21:08:25.953Z,67.36
2022-12-08T21:10:54.439Z,67.56
2022-12-08T21:13:21.553Z,66.88
2022-12-08T21:15:48.638Z,66.25
2022-12-08T21:18:16.580Z,66.42
2022-12-08T21:20:43.749Z,66.95
2022-12-08T21:23:10.828Z,67.14
2022-12-08T21:25:42.316Z,67.44
2022-12-08T21:28:10.315Z,67.51
2022-12-08T21:30:40.792Z,67.62
2022-12-08T21:33:07.783Z,66.54
2022-12-08T21:35:34.816Z,65.99
2022-12-08T21:38:01.849Z,65.75
2022-12-08T21:40:29.050Z,65.83
2022-12-08T21:42:56.340Z,66.44
2022-12-08T21:45:23.368Z,66.77
2022-12-08T21:47:50.702Z,66.58
2022-12-08T21:50:18.120Z,66.84
2022-12-08T21:52:47.249Z,66.97
2022-12-08T21:55:15.372Z,66.16
2022-12-08T21:57:42.507Z,65.12
2022-12-08T22:00:12.232Z,64.63
2022-12-08T22:02:39.728Z,64.96
2022-12-08T22:05:07.241Z,65.36
2022-12-08T22:07:35.002Z,66.36
2022-12-08T22:10:01.907Z,66.55
2022-12-08T22:12:29.153Z,65.71
2022-12-08T22:14:56.091Z,65.51
2022-12-08T22:17:23.269Z,64.22
2022-12-08T22:19:50.663Z,63.98
2022-12-08T22:22:17.710Z,63.30
2022-12-08T22:24:44.782Z,63.67
2022-12-08T22:27:12.008Z,63.98
2022-12-08T22:29:38.852Z,64.65
2022-12-08T22:32:05.897Z,65.20
2022-12-08T22:34:33.198Z,65.20
2022-12-08T22:37:00.243Z,64.15
2022-12-08T22:39:27.106Z,63.74
2022-12-08T22:41:54.029Z,63.85
2022-12-08T22:44:20.972Z,65.32
2022-12-08T22:46:48.000Z,66.69
2022-12-08T22:49:14.978Z,68.38
2022-12-08T22:51:42.296Z,68.01
2022-12-08T22:54:11.265Z,66.39
2022-12-08T22:56:38.505Z,65.18
2022-12-08T22:59:06.255Z,63.98
2022-12-08T23:01:33.661Z,64.41
2022-12-08T23:04:00.997Z,65.50
2022-12-08T23:06:29.257Z,66.20
2022-12-08T23:08:56.720Z,66.39
2022-12-08T23:11:27.980Z,67.47
2022-12-08T23:13:56.321Z,68.01
2022-12-08T23:16:23.318Z,67.11
2022-12-08T23:18:50.467Z,66.39
2022-12-08T23:21:18.561Z,66.05
2022-12-08T23:23:45.795Z,66.03
2022-12-08T23:26:26.952Z,66.39
2022-12-08T23:28:56.072Z,66.04
2022-12-08T23:31:23.545Z,65.97
2022-12-08T23:33:50.603Z,66.73
2022-12-08T23:36:18.362Z,67.23
2022-12-08T23:38:45.582Z,66.64
2022-12-08T23:41:14.212Z,66.06
2022-12-08T23:43:45.492Z,66.14
2022-12-08T23:46:12.678Z,66.21
2022-12-08T23:48:39.971Z,66.46
2022-12-08T23:51:06.872Z,67.18
2022-12-08T23:53:35.345Z,67.60
2022-12-08T23:56:03.734Z,67.32
2022-12-08T23:58:31.255Z,66.40
